createdAt,value
2023-02-27T00:00:42.438Z,0.00
2023-02-27T00:01:42.426Z,0.00
2023-02-27T00:02:42.502Z,0.00
2023-02-27T00:03:42.459Z,0.00
2023-02-27T00:04:42.417Z,0.00
2023-02-27T00:05:42.398Z,0.00
2023-02-27T00:06:42.377Z,0.00
2023-02-27T00:07:42.430Z,0.00
2023-02-27T00:08:42.456Z,0.00
2023-02-27T00:09:42.394Z,0.00
2023-02-27T00:10:42.329Z,0.00
2023-02-27T00:11:42.326Z,0.00
2023-02-27T00:12:42.307Z,0.00
2023-02-27T00:13:42.298Z,0.00
2023-02-27T00:14:42.305Z,0.00
2023-02-27T00:15:42.333Z,0.00
2023-02-27T00:16:42.265Z,0.00
2023-02-27T00:17:42.254Z,0.00
2023-02-27T00:18:42.247Z,0.00
2023-02-27T00:19:42.370Z,0.00
2023-02-27T00:20:42.229Z,0.00
2023-02-27T00:21:42.225Z,0.00
2023-02-27T00:22:42.207Z,0.00
2023-02-27T00:23:42.200Z,0.00
2023-02-27T00:24:42.200Z,0.00
2023-02-27T00:25:42.196Z,0.00
2023-02-27T00:26:42.173Z,0.00
2023-02-27T00:27:42.164Z,0.00
2023-02-27T00:28:42.146Z,0.00
2023-02-27T00:29:42.171Z,0.00
2023-02-27T00:30:42.200Z,0.00
2023-02-27T00:31:42.241Z,0.00
2023-02-27T00:32:42.117Z,0.00
2023-02-27T00:33:42.094Z,0.00
2023-02-27T00:34:42.072Z,0.00
2023-02-27T00:35:42.094Z,0.00
2023-02-27T00:36:42.050Z,0.00
2023-02-27T00:37:42.044Z,0.00
2023-02-27T00:38:42.026Z,0.00
2023-02-27T00:39:42.019Z,0.00
2023-02-27T00:40:42.029Z,0.00
2023-02-27T00:41:42.020Z,0.00
2023-02-27T00:42:42.013Z,0.00
2023-02-27T00:43:42.009Z,0.00
2023-02-27T00:44:41.994Z,0.00
2023-02-27T00:45:41.981Z,0.00
2023-02-27T00:46:42.070Z,0.00
2023-02-27T00:47:42.042Z,0.00
2023-02-27T00:48:41.920Z,0.00
2023-02-27T00:49:41.919Z,0.00
2023-02-27T00:50:41.929Z,0.00
2023-02-27T00:51:41.915Z,0.00
2023-02-27T00:52:41.888Z,0.00
2023-02-27T00:53:41.877Z,0.00
2023-02-27T00:54:41.864Z,0.00
2023-02-27T00:55:41.872Z,0.00
2023-02-27T00:56:41.840Z,0.00
2023-02-27T00:57:41.899Z,0.00
2023-02-27T00:58:41.819Z,0.00
2023-02-27T00:59:41.817Z,0.00
2023-02-27T01:00:41.882Z,0.00
2023-02-27T01:01:41.788Z,0.00
2023-02-27T01:02:41.874Z,0.00
2023-02-27T01:03:41.774Z,0.00
2023-02-27T01:04:41.756Z,0.00
2023-02-27T01:05:41.793Z,0.00
2023-02-27T01:06:41.743Z,0.00
2023-02-27T01:07:41.730Z,0.00
2023-02-27T01:08:41.715Z,0.00
2023-02-27T01:09:41.713Z,0.00
2023-02-27T01:10:41.713Z,0.00
2023-02-27T01:11:41.683Z,0.00
2023-02-27T01:12:41.677Z,0.00
2023-02-27T01:13:41.690Z,0.00
2023-02-27T01:14:41.651Z,0.00
2023-02-27T01:15:41.665Z,0.00
2023-02-27T01:16:41.697Z,0.00
2023-02-27T01:17:41.620Z,0.00
2023-02-27T01:18:41.615Z,0.00
2023-02-27T01:19:41.600Z,0.00
2023-02-27T01:20:41.611Z,0.00
2023-02-27T01:21:41.583Z,0.00
2023-02-27T01:22:41.574Z,0.00
2023-02-27T01:23:41.567Z,0.00
2023-02-27T01:24:41.561Z,0.00
2023-02-27T01:25:41.562Z,0.00
2023-02-27T01:26:41.531Z,0.00
2023-02-27T01:27:41.527Z,0.00
2023-02-27T01:28:41.523Z,0.00
2023-02-27T01:29:41.513Z,0.00
2023-02-27T01:30:41.506Z,0.00
2023-02-27T01:31:41.515Z,0.00
2023-02-27T01:32:41.560Z,0.00
2023-02-27T01:33:41.469Z,0.00
2023-02-27T01:34:41.470Z,0.00
2023-02-27T01:35:41.454Z,0.00
2023-02-27T01:36:41.420Z,0.00
2023-02-27T01:37:41.411Z,0.00
2023-02-27T01:38:41.406Z,0.00
2023-02-27T01:39:41.398Z,0.00
2023-02-27T01:40:41.399Z,0.00
2023-02-27T01:41:41.369Z,0.00
2023-02-27T01:42:41.360Z,0.00
2023-02-27T01:43:41.364Z,0.00
2023-02-27T01:44:41.338Z,0.00
2023-02-27T01:45:41.382Z,0.00
2023-02-27T01:46:41.320Z,0.00
2023-02-27T01:47:41.341Z,0.00
2023-02-27T01:48:41.310Z,0.00
2023-02-27T01:49:41.291Z,0.00
2023-02-27T01:50:41.288Z,0.00
2023-02-27T01:51:41.268Z,0.00
2023-02-27T01:52:41.252Z,0.00
2023-02-27T01:53:41.239Z,0.00
2023-02-27T01:54:41.241Z,0.00
2023-02-27T01:55:41.258Z,0.00
2023-02-27T01:56:41.204Z,0.00
2023-02-27T01:57:41.200Z,0.00
2023-02-27T01:58:41.188Z,0.00
2023-02-27T01:59:41.178Z,0.00
2023-02-27T02:00:41.179Z,0.00
2023-02-27T02:01:41.175Z,0.00
2023-02-27T02:02:41.143Z,0.00
2023-02-27T02:03:41.164Z,0.00
2023-02-27T02:04:41.123Z,0.00
2023-02-27T02:05:41.124Z,0.00
2023-02-27T02:06:41.099Z,0.00
2023-02-27T02:07:41.095Z,0.00
2023-02-27T02:08:41.084Z,0.00
2023-02-27T02:09:41.081Z,0.00
2023-02-27T02:10:41.079Z,0.00
2023-02-27T02:11:41.051Z,0.00
2023-02-27T02:12:41.036Z,0.00
2023-02-27T02:13:41.036Z,0.00
2023-02-27T02:14:41.015Z,0.00
2023-02-27T02:15:41.022Z,0.00
2023-02-27T02:16:41.030Z,0.00
2023-02-27T02:17:41.014Z,0.00
2023-02-27T02:18:40.982Z,0.00
2023-02-27T02:19:40.967Z,0.00
2023-02-27T02:20:40.977Z,0.00
2023-02-27T02:21:40.941Z,0.00
2023-02-27T02:22:40.929Z,0.00
2023-02-27T02:23:40.923Z,0.00
2023-02-27T02:24:40.912Z,0.00
2023-02-27T02:25:40.918Z,0.00
2023-02-27T02:26:40.897Z,0.00
2023-02-27T02:27:40.878Z,0.00
2023-02-27T02:28:40.869Z,0.00
2023-02-27T02:29:40.859Z,0.00
2023-02-27T02:30:40.945Z,0.00
2023-02-27T02:31:40.975Z,0.00
2023-02-27T02:32:40.824Z,0.00
2023-02-27T02:33:40.833Z,0.00
2023-02-27T02:34:40.803Z,0.00
2023-02-27T02:35:40.815Z,0.00
2023-02-27T02:36:40.779Z,0.00
2023-02-27T02:37:40.782Z,0.00
2023-02-27T02:38:40.762Z,0.00
2023-02-27T02:39:40.758Z,0.00
2023-02-27T02:40:40.782Z,0.00
2023-02-27T02:41:40.731Z,0.00
2023-02-27T02:42:40.718Z,0.00
2023-02-27T02:43:40.708Z,0.00
2023-02-27T02:44:40.719Z,0.00
2023-02-27T02:45:40.709Z,0.00
2023-02-27T02:46:40.679Z,0.00
2023-02-27T02:47:40.668Z,0.00
2023-02-27T02:48:40.654Z,0.00
2023-02-27T02:49:40.737Z,0.00
2023-02-27T02:50:40.651Z,0.00
2023-02-27T02:51:40.648Z,0.00
2023-02-27T02:52:40.623Z,0.00
2023-02-27T02:53:40.612Z,0.00
2023-02-27T02:54:40.596Z,0.00
2023-02-27T02:55:40.615Z,0.00
2023-02-27T02:56:40.569Z,0.00
2023-02-27T02:57:40.559Z,0.00
2023-02-27T02:58:40.552Z,0.00
2023-02-27T02:59:40.542Z,0.00
2023-02-27T03:00:40.546Z,0.00
2023-02-27T03:01:40.606Z,0.00
2023-02-27T03:02:40.506Z,0.00
2023-02-27T03:03:40.499Z,0.00
2023-02-27T03:04:40.563Z,0.00
2023-02-27T03:05:40.514Z,0.00
2023-02-27T03:06:40.464Z,0.00
2023-02-27T03:07:40.487Z,0.00
2023-02-27T03:08:40.458Z,0.00
2023-02-27T03:09:40.433Z,0.00
2023-02-27T03:10:40.440Z,0.00
2023-02-27T03:11:40.412Z,0.00
2023-02-27T03:12:40.401Z,0.00
2023-02-27T03:13:40.404Z,0.00
2023-02-27T03:14:40.384Z,0.00
2023-02-27T03:15:40.413Z,0.00
2023-02-27T03:16:40.357Z,0.00
2023-02-27T03:17:40.349Z,0.00
2023-02-27T03:18:40.334Z,0.00
2023-02-27T03:19:40.322Z,0.00
2023-02-27T03:20:40.346Z,0.00
2023-02-27T03:21:40.378Z,0.00
2023-02-27T03:22:40.294Z,0.00
2023-02-27T03:23:40.284Z,0.00
2023-02-27T03:24:40.269Z,0.00
2023-02-27T03:25:40.287Z,0.00
2023-02-27T03:26:40.240Z,0.00
2023-02-27T03:27:40.247Z,0.00
2023-02-27T03:28:40.225Z,0.00
2023-02-27T03:29:40.206Z,0.00
2023-02-27T03:30:40.300Z,0.00
2023-02-27T03:31:40.297Z,0.00
2023-02-27T03:32:40.179Z,0.00
2023-02-27T03:33:40.168Z,0.00
2023-02-27T03:34:40.222Z,0.00
2023-02-27T03:35:40.158Z,0.00
2023-02-27T03:36:40.139Z,0.00
2023-02-27T03:37:40.141Z,0.00
2023-02-27T03:38:40.130Z,0.00
2023-02-27T03:39:40.118Z,0.00
2023-02-27T03:40:40.110Z,0.00
2023-02-27T03:41:40.088Z,0.00
2023-02-27T03:42:40.080Z,0.00
2023-02-27T03:43:40.062Z,0.00
2023-02-27T03:44:40.048Z,0.00
2023-02-27T03:45:40.052Z,0.00
2023-02-27T03:46:40.061Z,0.00
2023-02-27T03:47:40.023Z,0.00
2023-02-27T03:48:40.003Z,0.00
2023-02-27T03:49:40.019Z,0.00
2023-02-27T03:50:39.980Z,0.00
2023-02-27T03:51:39.990Z,0.00
2023-02-27T03:52:39.967Z,0.00
2023-02-27T03:53:39.976Z,0.00
2023-02-27T03:54:39.966Z,0.00
2023-02-27T03:55:39.937Z,0.00
2023-02-27T03:56:39.942Z,0.00
2023-02-27T03:57:39.911Z,0.00
2023-02-27T03:58:39.907Z,0.00
2023-02-27T03:59:39.886Z,0.00
2023-02-27T04:00:39.878Z,0.00
2023-02-27T04:01:39.889Z,0.00
2023-02-27T04:02:39.879Z,0.00
2023-02-27T04:03:39.851Z,0.00
2023-02-27T04:04:39.844Z,0.00
2023-02-27T04:05:39.827Z,0.00
2023-02-27T04:06:39.841Z,0.00
2023-02-27T04:07:39.823Z,0.00
2023-02-27T04:08:39.793Z,0.00
2023-02-27T04:09:39.797Z,0.00
2023-02-27T04:10:39.769Z,0.00
2023-02-27T04:11:39.776Z,0.00
2023-02-27T04:12:39.756Z,0.00
2023-02-27T04:13:39.749Z,0.00
2023-02-27T04:14:39.736Z,0.00
2023-02-27T04:15:39.723Z,0.00
2023-02-27T04:16:39.715Z,0.00
2023-02-27T04:17:39.706Z,0.00
2023-02-27T04:18:39.687Z,0.00
2023-02-27T04:19:39.733Z,0.00
2023-02-27T04:20:39.668Z,0.00
2023-02-27T04:21:39.668Z,0.00
2023-02-27T04:22:39.650Z,0.00
2023-02-27T04:23:39.632Z,0.00
2023-02-27T04:24:39.633Z,0.00
2023-02-27T04:25:39.628Z,0.00
2023-02-27T04:26:43.319Z,0.00
2023-02-27T04:27:39.602Z,0.00
2023-02-27T04:28:39.581Z,0.00
2023-02-27T04:29:39.697Z,0.00
2023-02-27T04:30:39.563Z,0.00
2023-02-27T04:31:39.652Z,0.00
2023-02-27T04:32:39.719Z,0.00
2023-02-27T04:33:39.542Z,0.00
2023-02-27T04:34:39.684Z,0.00
2023-02-27T04:35:39.512Z,0.00
2023-02-27T04:36:39.501Z,0.00
2023-02-27T04:37:39.492Z,0.00
2023-02-27T04:38:39.500Z,0.00
2023-02-27T04:39:39.755Z,0.00
2023-02-27T04:40:39.459Z,0.00
2023-02-27T04:41:39.468Z,0.00
2023-02-27T04:42:39.443Z,0.00
2023-02-27T04:43:39.431Z,0.00
2023-02-27T04:44:39.429Z,0.00
2023-02-27T04:45:39.415Z,0.00
2023-02-27T04:46:39.400Z,0.00
2023-02-27T04:47:39.387Z,0.00
2023-02-27T04:48:39.381Z,0.00
2023-02-27T04:49:39.400Z,0.00
2023-02-27T04:50:39.356Z,0.00
2023-02-27T04:51:39.364Z,0.00
2023-02-27T04:52:39.335Z,0.00
2023-02-27T04:53:39.318Z,0.00
2023-02-27T04:54:39.310Z,0.00
2023-02-27T04:55:39.302Z,0.00
2023-02-27T04:56:39.313Z,0.00
2023-02-27T04:57:39.314Z,0.00
2023-02-27T04:58:39.353Z,0.00
2023-02-27T04:59:39.258Z,0.00
2023-02-27T05:00:39.248Z,0.00
2023-02-27T05:01:39.273Z,0.00
2023-02-27T05:02:39.360Z,0.00
2023-02-27T05:03:39.214Z,0.00
2023-02-27T05:04:39.205Z,0.00
2023-02-27T05:05:39.198Z,0.00
2023-02-27T05:06:39.216Z,0.00
2023-02-27T05:07:39.172Z,0.00
2023-02-27T05:08:39.168Z,0.00
2023-02-27T05:09:39.161Z,0.00
2023-02-27T05:10:39.144Z,0.00
2023-02-27T05:11:39.183Z,0.00
2023-02-27T05:12:39.115Z,0.00
2023-02-27T05:13:39.127Z,0.00
2023-02-27T05:14:39.116Z,0.00
2023-02-27T05:15:39.154Z,0.00
2023-02-27T05:16:39.202Z,0.00
2023-02-27T05:17:39.120Z,0.00
2023-02-27T05:18:39.053Z,0.00
2023-02-27T05:19:39.063Z,0.00
2023-02-27T05:20:39.043Z,0.00
2023-02-27T05:21:39.041Z,0.00
2023-02-27T05:22:39.010Z,0.00
2023-02-27T05:23:38.995Z,0.00
2023-02-27T05:24:38.997Z,4.00
2023-02-27T05:25:38.974Z,4.00
2023-02-27T05:26:38.994Z,0.00
2023-02-27T05:27:38.951Z,0.00
2023-02-27T05:28:38.954Z,4.00
2023-02-27T05:29:38.985Z,4.00
2023-02-27T05:30:38.932Z,4.00
2023-02-27T05:31:38.964Z,4.00
2023-02-27T05:32:39.044Z,4.00
2023-02-27T05:33:38.891Z,8.00
2023-02-27T05:34:38.882Z,8.00
2023-02-27T05:35:38.911Z,8.00
2023-02-27T05:36:38.893Z,8.00
2023-02-27T05:37:38.851Z,12.00
2023-02-27T05:38:38.838Z,12.00
2023-02-27T05:39:38.855Z,16.00
2023-02-27T05:40:38.816Z,16.00
2023-02-27T05:41:38.820Z,24.00
2023-02-27T05:42:38.797Z,24.00
2023-02-27T05:43:38.782Z,28.00
2023-02-27T05:44:38.790Z,36.00
2023-02-27T05:45:38.832Z,40.00
2023-02-27T05:46:38.764Z,44.00
2023-02-27T05:47:38.758Z,52.00
2023-02-27T05:48:38.731Z,56.00
2023-02-27T05:49:38.724Z,64.00
2023-02-27T05:50:38.706Z,72.00
2023-02-27T05:51:38.718Z,80.00
2023-02-27T05:52:38.690Z,88.00
2023-02-27T05:53:38.698Z,92.00
2023-02-27T05:54:38.676Z,100.00
2023-02-27T05:55:38.654Z,108.00
2023-02-27T05:56:38.661Z,116.00
2023-02-27T05:57:38.634Z,120.00
2023-02-27T05:58:38.623Z,128.00
2023-02-27T05:59:38.628Z,136.00
2023-02-27T06:00:38.620Z,140.00
2023-02-27T06:01:38.627Z,152.00
2023-02-27T06:02:38.592Z,160.00
2023-02-27T06:03:38.620Z,176.00
2023-02-27T06:04:38.563Z,196.00
2023-02-27T06:05:38.550Z,216.00
2023-02-27T06:06:38.555Z,236.00
2023-02-27T06:07:38.541Z,256.00
2023-02-27T06:08:38.525Z,268.00
2023-02-27T06:09:38.516Z,280.00
2023-02-27T06:10:38.546Z,288.00
2023-02-27T06:11:38.568Z,300.00
2023-02-27T06:12:38.488Z,308.00
2023-02-27T06:13:40.857Z,320.00
2023-02-27T06:14:38.483Z,328.00
2023-02-27T06:15:38.447Z,332.00
2023-02-27T06:16:38.620Z,344.00
2023-02-27T06:17:38.456Z,360.00
2023-02-27T06:18:38.420Z,376.00
2023-02-27T06:19:38.421Z,384.00
2023-02-27T06:20:38.398Z,388.00
2023-02-27T06:21:38.459Z,388.00
2023-02-27T06:22:38.380Z,388.00
2023-02-27T06:23:38.362Z,384.00
2023-02-27T06:24:38.377Z,376.00
2023-02-27T06:25:38.348Z,380.00
2023-02-27T06:26:38.338Z,388.00
2023-02-27T06:27:38.322Z,404.00
2023-02-27T06:28:38.307Z,424.00
2023-02-27T06:29:38.297Z,460.00
2023-02-27T06:30:38.354Z,496.00
2023-02-27T06:31:38.305Z,536.00
2023-02-27T06:32:38.284Z,564.00
2023-02-27T06:33:38.277Z,580.00
2023-02-27T06:34:38.253Z,604.00
2023-02-27T06:35:38.301Z,628.00
2023-02-27T06:36:38.239Z,652.00
2023-02-27T06:37:38.218Z,668.00
2023-02-27T06:38:38.200Z,684.00
2023-02-27T06:39:38.190Z,728.00
2023-02-27T06:40:38.199Z,788.00
2023-02-27T06:41:38.178Z,852.00
2023-02-27T06:42:38.155Z,924.00
2023-02-27T06:43:38.230Z,976.00
2023-02-27T06:44:38.132Z,1032.00
2023-02-27T06:45:38.120Z,1080.00
2023-02-27T06:46:38.252Z,1144.00
2023-02-27T06:47:38.098Z,1228.00
2023-02-27T06:48:38.099Z,1324.00
2023-02-27T06:49:38.105Z,1424.00
2023-02-27T06:50:38.071Z,1476.00
2023-02-27T06:51:38.081Z,1500.00
2023-02-27T06:52:38.049Z,1504.00
2023-02-27T06:53:38.032Z,1540.00
2023-02-27T06:54:38.026Z,1560.00
2023-02-27T06:55:38.012Z,1572.00
2023-02-27T06:56:38.022Z,1580.00
2023-02-27T06:57:38.039Z,1536.00
2023-02-27T06:58:37.986Z,1444.00
2023-02-27T06:59:37.971Z,1356.00
2023-02-27T07:00:37.961Z,1276.00
2023-02-27T07:01:38.073Z,1216.00
2023-02-27T07:02:37.957Z,1140.00
2023-02-27T07:03:37.960Z,1072.00
2023-02-27T07:04:38.005Z,1032.00
2023-02-27T07:05:37.946Z,992.00
2023-02-27T07:07:33.940Z,948.00
2023-02-27T07:07:39.198Z,892.00
2023-02-27T07:08:37.896Z,836.00
2023-02-27T07:09:38.874Z,792.00
2023-02-27T07:10:37.857Z,744.00
2023-02-27T07:11:37.846Z,704.00
2023-02-27T07:12:37.857Z,688.00
2023-02-27T07:13:37.824Z,680.00
2023-02-27T07:14:37.819Z,680.00
2023-02-27T07:15:37.828Z,676.00
2023-02-27T07:16:37.797Z,660.00
2023-02-27T07:17:37.793Z,636.00
2023-02-27T07:18:37.774Z,616.00
2023-02-27T07:19:37.763Z,592.00
2023-02-27T07:20:37.749Z,592.00
2023-02-27T07:21:37.771Z,600.00
2023-02-27T07:22:37.766Z,608.00
2023-02-27T07:23:37.721Z,580.00
2023-02-27T07:24:37.710Z,524.00
2023-02-27T07:25:37.702Z,488.00
2023-02-27T07:26:37.700Z,484.00
2023-02-27T07:27:37.705Z,472.00
2023-02-27T07:28:37.753Z,452.00
2023-02-27T07:29:37.658Z,416.00
2023-02-27T07:30:37.647Z,388.00
2023-02-27T07:31:37.765Z,372.00
2023-02-27T07:32:37.652Z,388.00
2023-02-27T07:33:37.612Z,412.00
2023-02-27T07:34:37.605Z,428.00
2023-02-27T07:35:37.624Z,440.00
2023-02-27T07:36:37.601Z,448.00
2023-02-27T07:37:37.664Z,488.00
2023-02-27T07:38:37.563Z,508.00
2023-02-27T07:39:37.551Z,540.00
2023-02-27T07:40:37.537Z,600.00
2023-02-27T07:41:37.528Z,676.00
2023-02-27T07:42:37.536Z,748.00
2023-02-27T07:43:37.505Z,800.00
2023-02-27T07:44:37.526Z,812.00
2023-02-27T07:45:37.490Z,820.00
2023-02-27T07:46:37.512Z,856.00
2023-02-27T07:47:37.506Z,956.00
2023-02-27T07:48:37.455Z,1124.00
2023-02-27T07:49:37.445Z,1272.00
2023-02-27T07:50:37.433Z,1372.00
2023-02-27T07:51:37.420Z,1400.00
2023-02-27T07:52:37.437Z,1428.00
2023-02-27T07:53:37.474Z,1444.00
2023-02-27T07:54:37.411Z,1464.00
2023-02-27T07:55:37.423Z,1480.00
2023-02-27T07:56:37.371Z,1488.00
2023-02-27T07:57:37.377Z,1480.00
2023-02-27T07:58:37.350Z,1500.00
2023-02-27T07:59:37.337Z,1504.00
2023-02-27T08:00:37.330Z,1528.00
2023-02-27T08:01:37.320Z,1556.00
2023-02-27T08:02:37.335Z,1596.00
2023-02-27T08:03:37.292Z,1620.00
2023-02-27T08:04:37.320Z,1640.00
2023-02-27T08:05:37.274Z,1648.00
2023-02-27T08:06:37.313Z,1648.00
2023-02-27T08:07:37.275Z,1708.00
2023-02-27T08:08:37.246Z,1728.00
2023-02-27T08:09:37.272Z,1756.00
2023-02-27T08:10:37.221Z,1812.00
2023-02-27T08:11:37.206Z,1916.00
2023-02-27T08:12:37.210Z,2048.00
2023-02-27T08:14:03.326Z,2224.00
2023-02-27T08:14:38.176Z,2428.00
2023-02-27T08:15:37.168Z,2692.00
2023-02-27T08:16:37.272Z,3032.00
2023-02-27T08:17:37.160Z,3432.00
2023-02-27T08:18:37.138Z,3972.00
2023-02-27T08:19:37.124Z,4636.00
2023-02-27T08:20:37.119Z,5484.00
2023-02-27T08:21:37.100Z,5336.00
2023-02-27T08:22:37.109Z,4360.00
2023-02-27T08:23:37.088Z,4140.00
2023-02-27T08:24:37.082Z,4040.00
2023-02-27T08:25:37.079Z,3944.00
2023-02-27T08:26:37.048Z,3928.00
2023-02-27T08:27:37.052Z,4072.00
2023-02-27T08:28:37.069Z,4328.00
2023-02-27T08:29:37.017Z,4484.00
2023-02-27T08:30:37.005Z,4436.00
2023-02-27T08:31:37.062Z,4692.00
2023-02-27T08:32:37.067Z,4624.00
2023-02-27T08:33:36.970Z,4948.00
2023-02-27T08:34:37.016Z,5412.00
2023-02-27T08:35:36.971Z,5464.00
2023-02-27T08:36:36.942Z,5464.00
2023-02-27T08:37:36.939Z,5592.00
2023-02-27T08:38:36.931Z,6024.00
2023-02-27T08:39:36.903Z,6212.00
2023-02-27T08:40:36.889Z,6712.00
2023-02-27T08:41:36.909Z,7372.00
2023-02-27T08:42:36.882Z,7224.00
2023-02-27T08:43:36.865Z,7300.00
2023-02-27T08:44:36.846Z,7724.00
2023-02-27T08:45:36.884Z,8292.00
2023-02-27T08:46:36.825Z,8776.00
2023-02-27T08:47:36.827Z,9668.00
2023-02-27T08:48:36.802Z,10172.00
2023-02-27T08:49:36.802Z,12636.00
2023-02-27T08:50:36.779Z,11516.00
2023-02-27T08:51:36.773Z,13084.00
2023-02-27T08:52:36.795Z,14328.00
2023-02-27T08:53:36.752Z,16416.00
2023-02-27T08:54:36.738Z,14776.00
2023-02-27T08:55:36.732Z,14004.00
2023-02-27T08:56:36.722Z,16832.00
2023-02-27T08:57:36.745Z,16800.00
2023-02-27T08:58:36.692Z,17056.00
2023-02-27T08:59:36.691Z,20896.00
2023-02-27T09:00:36.693Z,19104.00
2023-02-27T09:01:36.665Z,58112.00
2023-02-27T09:02:36.729Z,29088.00
2023-02-27T09:03:36.648Z,15988.00
2023-02-27T09:04:36.634Z,16448.00
2023-02-27T09:05:36.621Z,13952.00
2023-02-27T09:06:36.618Z,13580.00
2023-02-27T09:07:36.608Z,12892.00
2023-02-27T09:08:36.587Z,11748.00
2023-02-27T09:09:36.578Z,11448.00
2023-02-27T09:10:36.602Z,14144.00
2023-02-27T09:11:38.687Z,11476.00
2023-02-27T09:12:36.572Z,11292.00
2023-02-27T09:13:36.554Z,11768.00
2023-02-27T09:14:36.519Z,11792.00
2023-02-27T09:15:36.509Z,11788.00
2023-02-27T09:16:36.574Z,13152.00
2023-02-27T09:17:36.499Z,13696.00
2023-02-27T09:18:36.483Z,12652.00
2023-02-27T09:19:36.466Z,13564.00
2023-02-27T09:20:36.474Z,14568.00
2023-02-27T09:21:36.446Z,14176.00
2023-02-27T09:22:36.458Z,15112.00
2023-02-27T09:23:36.426Z,13912.00
2023-02-27T09:24:36.412Z,27232.00
2023-02-27T09:25:36.401Z,13568.00
2023-02-27T09:26:45.214Z,13248.00
2023-02-27T09:27:37.406Z,13500.00
2023-02-27T09:28:36.368Z,17504.00
2023-02-27T09:29:36.379Z,15080.00
2023-02-27T09:30:36.345Z,12084.00
2023-02-27T09:31:36.455Z,11476.00
2023-02-27T09:32:36.367Z,10344.00
2023-02-27T09:33:36.314Z,9280.00
2023-02-27T09:34:36.307Z,8888.00
2023-02-27T09:35:36.326Z,6736.00
2023-02-27T09:36:36.282Z,6176.00
2023-02-27T09:37:36.284Z,5908.00
2023-02-27T09:38:36.270Z,5584.00
2023-02-27T09:39:36.264Z,5212.00
2023-02-27T09:40:36.243Z,4968.00
2023-02-27T09:41:36.228Z,4848.00
2023-02-27T09:42:36.230Z,4904.00
2023-02-27T09:43:36.210Z,5012.00
2023-02-27T09:44:45.833Z,5248.00
2023-02-27T09:45:37.264Z,5572.00
2023-02-27T09:46:36.168Z,5712.00
2023-02-27T09:47:36.180Z,5752.00
2023-02-27T09:48:36.185Z,5752.00
2023-02-27T09:49:36.142Z,5752.00
2023-02-27T09:50:36.125Z,5312.00
2023-02-27T09:51:36.135Z,5076.00
2023-02-27T09:52:36.109Z,5008.00
2023-02-27T09:53:36.114Z,5032.00
2023-02-27T09:54:36.100Z,4940.00
2023-02-27T09:55:36.089Z,5016.00
2023-02-27T09:56:36.067Z,5356.00
2023-02-27T09:57:36.092Z,5724.00
2023-02-27T09:58:36.045Z,5956.00
2023-02-27T09:59:36.033Z,6128.00
2023-02-27T10:00:36.031Z,5872.00
2023-02-27T10:01:36.041Z,5772.00
2023-02-27T10:02:36.064Z,5740.00
2023-02-27T10:03:36.065Z,5852.00
2023-02-27T10:04:35.984Z,5776.00
2023-02-27T10:05:35.972Z,5772.00
2023-02-27T10:06:35.952Z,5664.00
2023-02-27T10:07:35.958Z,5648.00
2023-02-27T10:08:35.933Z,5768.00
2023-02-27T10:09:35.936Z,6016.00
2023-02-27T10:10:35.914Z,6164.00
2023-02-27T10:11:35.900Z,6304.00
2023-02-27T10:12:35.930Z,6700.00
2023-02-27T10:13:35.899Z,7012.00
2023-02-27T10:14:35.871Z,7328.00
2023-02-27T10:15:35.858Z,7752.00
2023-02-27T10:16:35.932Z,8588.00
2023-02-27T10:17:35.878Z,9312.00
2023-02-27T10:18:35.837Z,8320.00
2023-02-27T10:19:35.836Z,8272.00
2023-02-27T10:20:35.831Z,8896.00
2023-02-27T10:21:35.807Z,9740.00
2023-02-27T10:22:35.798Z,11408.00
2023-02-27T10:23:35.783Z,11732.00
2023-02-27T10:24:35.766Z,10156.00
2023-02-27T10:25:35.765Z,10584.00
2023-02-27T10:26:35.744Z,11236.00
2023-02-27T10:27:42.797Z,12716.00
2023-02-27T10:28:35.725Z,10112.00
2023-02-27T10:29:35.721Z,9656.00
2023-02-27T10:30:35.798Z,9736.00
2023-02-27T10:31:35.750Z,10028.00
2023-02-27T10:32:35.763Z,10620.00
2023-02-27T10:33:35.727Z,9896.00
2023-02-27T10:34:35.673Z,10664.00
2023-02-27T10:35:35.707Z,11784.00
2023-02-27T10:36:35.696Z,7696.00
2023-02-27T10:37:35.624Z,7412.00
2023-02-27T10:38:35.640Z,7024.00
2023-02-27T10:39:35.614Z,6884.00
2023-02-27T10:40:35.613Z,6468.00
2023-02-27T10:41:35.584Z,6144.00
2023-02-27T10:42:35.574Z,6148.00
2023-02-27T10:43:35.589Z,6192.00
2023-02-27T10:44:35.590Z,6188.00
2023-02-27T10:45:37.027Z,6280.00
2023-02-27T10:46:35.576Z,6416.00
2023-02-27T10:47:35.520Z,6644.00
2023-02-27T10:48:35.517Z,6908.00
2023-02-27T10:49:35.529Z,7120.00
2023-02-27T10:50:35.482Z,7412.00
2023-02-27T10:51:35.472Z,7792.00
2023-02-27T10:52:35.458Z,8056.00
2023-02-27T10:53:35.468Z,8320.00
2023-02-27T10:54:35.440Z,8512.00
2023-02-27T10:55:35.427Z,8716.00
2023-02-27T10:56:35.422Z,9112.00
2023-02-27T10:57:35.404Z,9160.00
2023-02-27T10:58:35.425Z,8808.00
2023-02-27T10:59:35.389Z,8664.00
2023-02-27T11:00:35.390Z,8688.00
2023-02-27T11:01:35.427Z,8464.00
2023-02-27T11:02:35.347Z,8588.00
2023-02-27T11:03:35.355Z,9196.00
2023-02-27T11:04:35.397Z,10192.00
2023-02-27T11:05:35.341Z,11448.00
2023-02-27T11:06:35.313Z,12636.00
2023-02-27T11:07:35.304Z,13252.00
2023-02-27T11:08:35.311Z,13404.00
2023-02-27T11:09:35.280Z,12440.00
2023-02-27T11:10:35.274Z,11720.00
2023-02-27T11:11:35.254Z,10764.00
2023-02-27T11:12:35.316Z,9980.00
2023-02-27T11:13:35.257Z,9952.00
2023-02-27T11:14:35.257Z,10256.00
2023-02-27T11:15:35.309Z,9892.00
2023-02-27T11:16:35.203Z,9448.00
2023-02-27T11:17:35.204Z,9388.00
2023-02-27T11:18:35.176Z,9376.00
2023-02-27T11:19:35.206Z,9552.00
2023-02-27T11:20:35.156Z,9512.00
2023-02-27T11:21:35.162Z,9140.00
2023-02-27T11:22:35.135Z,8660.00
2023-02-27T11:23:35.142Z,7976.00
2023-02-27T11:24:35.118Z,6728.00
2023-02-27T11:25:35.101Z,5948.00
2023-02-27T11:26:35.117Z,5484.00
2023-02-27T11:27:35.085Z,5204.00
2023-02-27T11:28:35.085Z,4700.00
2023-02-27T11:29:35.065Z,4080.00
2023-02-27T11:30:35.049Z,3608.00
2023-02-27T11:31:35.114Z,3436.00
2023-02-27T11:32:35.031Z,3420.00
2023-02-27T11:33:35.072Z,3424.00
2023-02-27T11:34:35.014Z,3448.00
2023-02-27T11:35:35.040Z,3704.00
2023-02-27T11:36:34.984Z,3744.00
2023-02-27T11:37:35.006Z,3940.00
2023-02-27T11:38:34.991Z,3624.00
2023-02-27T11:39:34.969Z,3404.00
2023-02-27T11:40:34.949Z,2996.00
2023-02-27T11:41:34.931Z,2996.00
2023-02-27T11:42:34.948Z,3000.00
2023-02-27T11:43:34.931Z,2976.00
2023-02-27T11:44:50.239Z,2988.00
2023-02-27T11:46:11.378Z,3036.00
2023-02-27T11:46:47.179Z,3244.00
2023-02-27T11:47:36.858Z,3564.00
2023-02-27T11:48:34.920Z,3980.00
2023-02-27T11:49:34.869Z,4320.00
2023-02-27T11:50:34.848Z,4668.00
2023-02-27T11:51:34.828Z,4760.00
2023-02-27T11:52:34.809Z,4868.00
2023-02-27T11:53:34.845Z,4636.00
2023-02-27T11:54:34.789Z,4904.00
2023-02-27T11:55:34.780Z,4940.00
2023-02-27T11:56:36.226Z,4752.00
2023-02-27T11:57:34.760Z,5100.00
2023-02-27T11:58:34.761Z,5024.00
2023-02-27T11:59:34.740Z,4760.00
2023-02-27T12:00:34.726Z,4136.00
2023-02-27T12:01:34.715Z,3528.00
2023-02-27T12:02:34.761Z,3412.00
2023-02-27T12:03:34.749Z,3444.00
2023-02-27T12:04:34.689Z,3744.00
2023-02-27T12:05:34.674Z,4020.00
2023-02-27T12:06:34.658Z,4708.00
2023-02-27T12:07:34.668Z,5340.00
2023-02-27T12:08:34.664Z,5616.00
2023-02-27T12:09:34.658Z,5660.00
2023-02-27T12:10:34.616Z,5852.00
2023-02-27T12:11:34.607Z,6276.00
2023-02-27T12:12:34.637Z,5680.00
2023-02-27T12:13:34.620Z,5388.00
2023-02-27T12:14:34.625Z,4868.00
2023-02-27T12:15:34.566Z,4200.00
2023-02-27T12:16:35.053Z,3788.00
2023-02-27T12:17:34.538Z,3476.00
2023-02-27T12:18:34.598Z,3304.00
2023-02-27T12:19:34.527Z,3124.00
2023-02-27T12:20:34.521Z,2892.00
2023-02-27T12:21:34.495Z,2724.00
2023-02-27T12:22:34.484Z,2712.00
2023-02-27T12:23:34.495Z,2724.00
2023-02-27T12:24:34.465Z,2692.00
2023-02-27T12:25:34.510Z,2656.00
2023-02-27T12:26:34.443Z,2568.00
2023-02-27T12:27:34.427Z,2480.00
2023-02-27T12:28:34.447Z,2424.00
2023-02-27T12:29:34.421Z,2344.00
2023-02-27T12:30:34.453Z,2292.00
2023-02-27T12:31:34.477Z,2292.00
2023-02-27T12:32:34.421Z,2336.00
2023-02-27T12:33:34.388Z,2372.00
2023-02-27T12:34:34.354Z,2384.00
2023-02-27T12:35:34.395Z,2388.00
2023-02-27T12:36:34.327Z,2436.00
2023-02-27T12:37:34.317Z,2436.00
2023-02-27T12:38:35.280Z,2428.00